Archival Weather

Fukuoka

Fukuoka, Japan (RJFF)

Report from: Tuesday, August 16, 2022 8:15 PM JST
Current time: Sunday, November 27, 2022 6:40 PM JST

Current weather
Weather history
Weather forecast

Present weatherHeavy thunderstorm with rain, mist
Temperature26.0°C (78.8°F)
Dew point25.0°C (77.0°F)
Winds 11 kts (5.7 m/s, 12.7 mph) South (170°)
Visibility2.5 mi. (4 km)
Clouds Few clouds 1,000 ft. (305 m)
Few clouds with cumulonimbus 3,000 ft. (914 m)
Scattered clouds 3,500 ft. (1,067 m)
Ceiling: Broken clouds 4,000 ft. (1,219 m)
Altimeter29.74 in.Hg (1007 mB)
Precip. events C 8:02 PM
Relative humidity94 %
Density altitude1,905 ft. (581 m)
Remarks Special weather observation
Thunderstorm southwest moving northeast
Flight conditions Instrument Meteorological Conditions
Raw dataSPJP31 KWBC 161124 SPECI RJFF 161115Z 17011KT 4000 R16/P2000N +TSRA BR FEW010 FEW030CB SCT035 BKN040 26/25 Q1007 RMK 1ST010 2CB030 4CU035 5CU040 A2975 FBL TS 15KM SW MOV NE
An error has occurred. This application may no longer respond until reloaded. Reload 🗙